Time;durP1;ratioP1;P1;durP2;ratioP2;P2;SDS_P1;SDS_P2;PMS_P1;PMS_P2;Temp;Humidity;BMP_temperature;BMP_pressure;BME280_temperature;BME280_humidity;BME280_pressure;Samples;Min_cycle;Max_cycle;Signal;HPM_P1;HPM_P2
2021/09/02 03:33:25;;;;;;;6.60;6.00;;;;;;;14.39;59.75;99536.84;8576642;22;20654;-81
2021/09/02 03:36:47;;;;;;;8.17;6.07;;;;;;;14.78;59.91;99620.88;8577209;23;20271;-80
2021/09/02 03:40:09;;;;;;;9.10;6.27;;;;;;;14.77;59.67;99611.06;8590264;23;20182;-81
2021/09/02 03:43:31;;;;;;;6.73;6.07;;;;;;;14.73;59.68;99612.53;8536616;23;20181;-81
2021/09/02 03:46:53;;;;;;;7.37;6.10;;;;;;;14.69;58.91;99628.41;8533789;23;20179;-81
2021/09/02 03:50:16;;;;;;;6.90;6.13;;;;;;;14.64;59.51;99641.78;8545849;23;20180;-81
2021/09/02 03:53:38;;;;;;;7.00;6.40;;;;;;;14.60;60.03;99642.41;8532657;23;20182;-82
2021/09/02 03:56:59;;;;;;;8.50;5.70;;;;;;;14.35;60.58;99641.38;8533012;23;20214;-82
2021/09/02 04:00:21;;;;;;;6.90;6.20;;;;;;;14.51;60.55;99636.34;8532158;23;20190;-82
2021/09/02 04:03:43;;;;;;;7.97;5.83;;;;;;;14.71;59.98;99636.34;8532576;23;20187;-81
2021/09/02 04:07:06;;;;;;;7.57;5.67;;;;;;;14.52;60.20;99618.22;8532229;23;20234;-81
2021/09/02 04:10:28;;;;;;;7.63;6.37;;;;;;;14.64;59.79;99641.78;8544509;23;20185;-81
2021/09/02 04:13:49;;;;;;;7.53;5.90;;;;;;;14.36;59.52;99633.03;8545405;23;20175;-81
2021/09/02 04:17:11;;;;;;;7.97;6.20;;;;;;;14.38;60.49;99639.09;8532344;23;20203;-81
2021/09/02 04:20:32;;;;;;;7.03;6.23;;;;;;;14.47;59.86;99624.28;8544891;23;20685;-81
2021/09/02 04:23:55;;;;;;;12.10;5.97;;;;;;;14.55;59.63;99636.78;8532239;23;20190;-81
2021/09/02 04:27:17;;;;;;;7.73;5.40;;;;;;;14.68;58.83;99632.16;8532131;23;20198;-81
2021/09/02 04:30:39;;;;;;;7.43;6.60;;;;;;;14.05;59.87;99648.22;8535921;23;20704;-82
2021/09/02 04:34:00;;;;;;;7.93;6.40;;;;;;;14.35;59.90;99634.09;8587206;23;20163;-80
2021/09/02 04:37:22;;;;;;;7.47;6.63;;;;;;;14.10;60.58;99632.16;8573508;23;20233;-81
2021/09/02 04:40:45;;;;;;;9.63;6.97;;;;;;;14.08;60.46;99594.41;8573010;23;20198;-81
2021/09/02 04:44:06;;;;;;;7.93;7.13;;;;;;;13.90;60.80;99634.00;8572992;23;20178;-81
2021/09/02 04:47:28;;;;;;;7.90;7.10;;;;;;;13.99;61.22;99635.50;8573787;23;20178;-81
2021/09/02 04:50:51;;;;;;;8.27;7.07;;;;;;;14.05;60.97;99604.84;8573042;23;20248;-82
2021/09/02 04:54:13;;;;;;;7.83;6.67;;;;;;;14.15;59.77;99606.09;8573677;23;20185;-81
2021/09/02 04:57:36;;;;;;;12.63;6.43;;;;;;;14.11;59.80;99652.81;8573025;23;20205;-82
2021/09/02 05:00:57;;;;;;;8.67;6.40;;;;;;;13.86;60.87;99651.75;8572833;23;20676;-81
2021/09/02 05:04:19;;;;;;;11.17;6.53;;;;;;;14.05;61.21;99646.31;8573649;23;20189;-81
2021/09/02 05:07:40;;;;;;;9.90;6.67;;;;;;;13.91;60.81;99624.81;8573340;23;20178;-81
2021/09/02 05:11:02;;;;;;;7.80;7.03;;;;;;;14.02;60.64;99651.34;8572675;23;20198;-82
2021/09/02 05:14:25;;;;;;;11.13;6.63;;;;;;;14.04;60.65;99647.38;8572666;23;20183;-82
2021/09/02 05:17:47;;;;;;;7.53;6.20;;;;;;;14.36;60.37;99635.75;8572897;23;20679;-81
2021/09/02 05:21:09;;;;;;;7.43;6.43;;;;;;;14.24;60.90;99644.72;8571852;23;20202;-81
2021/09/02 05:24:31;;;;;;;7.60;6.37;;;;;;;13.96;61.17;99639.44;8573139;23;20189;-82
2021/09/02 05:27:52;;;;;;;7.73;6.93;;;;;;;14.08;61.21;99655.94;8573038;23;20186;-81
2021/09/02 05:31:15;;;;;;;8.67;6.50;;;;;;;13.96;60.75;99615.03;8571420;23;20574;-81
2021/09/02 05:34:37;;;;;;;7.17;6.40;;;;;;;14.10;61.39;99643.84;8573480;23;20201;-81
2021/09/02 05:37:59;;;;;;;7.93;6.73;;;;;;;14.09;61.15;99646.78;8572247;23;20209;-82
2021/09/02 05:41:20;;;;;;;7.83;6.43;;;;;;;14.22;61.25;99646.81;8586351;23;20191;-81
2021/09/02 05:44:42;;;;;;;6.30;5.70;;;;;;;14.57;60.76;99645.56;8573407;23;20179;-81
2021/09/02 05:48:06;;;;;;;9.00;6.60;;;;;;;14.85;58.96;99651.56;8579284;23;20628;-81
2021/09/02 05:51:27;;;;;;;7.77;6.70;;;;;;;14.90;60.34;99649.03;8572683;23;20692;-81
2021/09/02 05:54:53;;;;;;;7.33;6.40;;;;;;;14.25;62.12;99632.81;8586822;23;20182;-81
2021/09/02 05:58:15;;;;;;;8.53;6.20;;;;;;;15.67;59.81;99644.41;8588043;23;20267;-81
2021/09/02 06:01:36;;;;;;;8.57;5.60;;;;;;;16.09;58.31;99639.13;8575266;23;20719;-81
2021/09/02 06:04:59;;;;;;;6.20;5.60;;;;;;;16.14;58.03;99647.44;8589275;23;20175;-81
2021/09/02 06:08:21;;;;;;;6.60;5.70;;;;;;;16.83;57.00;99642.72;8574732;23;20202;-81
2021/09/02 06:11:44;;;;;;;7.00;5.90;;;;;;;16.61;56.89;99622.38;8574728;23;20202;-81
2021/09/02 06:15:07;;;;;;;7.60;6.10;;;;;;;16.71;56.46;99619.16;8574762;23;20177;-81
2021/09/02 06:18:29;;;;;;;7.33;6.30;;;;;;;17.26;55.69;99632.59;8574362;23;20200;-82
2021/09/02 06:21:52;;;;;;;9.47;6.40;;;;;;;17.29;55.97;99629.38;8574351;23;20201;-82
2021/09/02 06:25:13;;;;;;;6.60;5.90;;;;;;;18.12;54.45;99638.56;8588694;23;20182;-81
2021/09/02 06:28:35;;;;;;;6.27;5.67;;;;;;;18.11;53.67;99626.00;8574214;23;20185;-82
2021/09/02 06:31:57;;;;;;;7.73;6.10;;;;;;;18.76;52.42;99641.31;8573921;23;20214;-81
2021/09/02 06:35:18;;;;;;;8.70;6.77;;;;;;;18.08;53.82;99626.44;8574910;23;20181;-81
2021/09/02 06:38:41;;;;;;;8.33;6.87;;;;;;;18.06;54.24;99640.34;8573484;23;20206;-81
2021/09/02 06:42:03;;;;;;;11.13;6.70;;;;;;;17.96;54.69;99634.63;8574458;23;20198;-81
2021/09/02 06:45:25;;;;;;;6.83;6.10;;;;;;;18.50;53.70;99653.53;8574457;23;20182;-81
2021/09/02 06:48:46;;;;;;;9.43;6.33;;;;;;;18.42;53.59;99640.22;8587687;23;20193;-82
2021/09/02 06:52:08;;;;;;;6.90;6.20;;;;;;;18.62;53.74;99648.91;8573484;23;20208;-81
2021/09/02 06:55:31;;;;;;;7.10;6.10;;;;;;;18.49;54.53;99651.88;8575326;23;20204;-81
2021/09/02 06:58:52;;;;;;;7.33;6.57;;;;;;;19.42;52.84;99648.06;8574180;23;20198;-80
2021/09/02 07:02:14;;;;;;;7.67;6.43;;;;;;;19.58;52.14;99647.28;8574674;23;20584;-82
2021/09/02 07:05:36;;;;;;;11.67;7.10;;;;;;;19.72;51.52;99620.47;8574679;23;20187;-81
2021/09/02 07:08:57;;;;;;;7.83;7.00;;;;;;;20.13;51.50;99651.16;8573719;23;20189;-82
2021/09/02 07:12:20;;;;;;;8.07;7.23;;;;;;;20.12;50.70;99626.75;8574761;23;20217;-81
2021/09/02 07:15:42;;;;;;;7.10;6.30;;;;;;;20.43;49.63;99585.09;8575814;23;20178;-81
2021/09/02 07:19:03;;;;;;;8.40;6.30;;;;;;;21.37;48.12;99610.41;8574501;23;20206;-81
2021/09/02 07:22:25;;;;;;;8.97;6.90;;;;;;;20.60;49.20;99647.06;8575254;23;20209;-82
2021/09/02 07:25:46;;;;;;;7.33;6.63;;;;;;;21.38;48.46;99637.59;8575003;23;20185;-81
2021/09/02 07:29:12;;;;;;;8.23;6.37;;;;;;;21.77;48.09;99628.19;8588033;23;20178;-81
2021/09/02 07:32:34;;;;;;;11.80;6.43;;;;;;;22.18;47.97;99635.78;8588784;23;20201;-82
2021/09/02 07:35:56;;;;;;;7.03;6.27;;;;;;;22.73;47.05;99647.28;8575409;23;20183;-82
2021/09/02 07:39:17;;;;;;;8.23;6.10;;;;;;;22.37;47.36;99650.81;8588663;23;20198;-82
2021/09/02 07:42:39;;;;;;;7.97;6.03;;;;;;;23.63;44.67;99653.41;8577009;23;20690;-82
2021/09/02 07:46:02;;;;;;;11.57;6.50;;;;;;;22.89;46.54;99646.31;8596173;23;20181;-82
2021/09/02 07:49:23;;;;;;;7.63;6.07;;;;;;;24.08;43.35;99642.56;8580541;23;20181;-82
2021/09/02 07:52:45;;;;;;;6.40;5.80;;;;;;;24.38;41.79;99634.34;8577495;23;20520;-81
2021/09/02 07:56:07;;;;;;;9.63;5.23;;;;;;;24.54;43.30;99657.25;8575668;23;20623;-82
2021/09/02 07:59:28;;;;;;;8.80;6.00;;;;;;;24.48;42.06;99642.63;8575262;23;20200;-82
2021/09/02 08:02:51;;;;;;;6.37;5.77;;;;;;;24.41;40.92;99635.72;8574825;23;20204;-81
2021/09/02 08:06:13;;;;;;;6.43;5.50;;;;;;;23.43;42.79;99656.03;8588814;23;20172;-82
2021/09/02 08:09:36;;;;;;;6.93;5.93;;;;;;;22.52;44.34;99658.38;8573404;23;20180;-82
2021/09/02 08:12:57;;;;;;;5.93;5.20;;;;;;;23.28;43.90;99641.38;8573112;23;20215;-82
2021/09/02 08:16:19;;;;;;;5.57;5.00;;;;;;;22.77;45.04;99651.19;8573265;23;20189;-82
2021/09/02 08:19:42;;;;;;;9.27;5.47;;;;;;;23.41;42.65;99643.63;8572108;23;20532;-81
2021/09/02 08:23:04;;;;;;;5.57;5.03;;;;;;;22.92;44.39;99642.22;8573296;23;20661;-82
2021/09/02 08:26:26;;;;;;;5.77;5.27;;;;;;;22.35;45.33;99658.47;8572973;23;20662;-82
2021/09/02 08:29:48;;;;;;;7.67;5.57;;;;;;;22.19;46.56;99662.16;8572249;23;20179;-82
2021/09/02 08:33:09;;;;;;;6.33;5.10;;;;;;;23.50;43.54;99659.41;8572599;23;20210;-82
2021/09/02 08:36:32;;;;;;;5.77;5.13;;;;;;;23.23;43.45;99663.34;8586618;23;20656;-82
2021/09/02 08:39:54;;;;;;;6.43;5.83;;;;;;;23.15;43.57;99658.34;8573100;23;20203;-81
2021/09/02 08:43:17;;;;;;;6.40;5.80;;;;;;;22.89;44.68;99648.25;8573497;23;20199;-82
2021/09/02 08:46:38;;;;;;;6.07;5.00;;;;;;;22.99;44.59;99648.31;8573201;23;20182;-82
2021/09/02 08:50:00;;;;;;;6.33;5.40;;;;;;;22.84;43.25;99602.28;8585638;23;20512;-82
2021/09/02 08:53:23;;;;;;;5.97;5.20;;;;;;;23.30;42.83;99648.28;8572750;23;20522;-82
2021/09/02 08:56:45;;;;;;;6.83;5.70;;;;;;;23.63;42.39;99645.16;8573204;23;20183;-81
2021/09/02 09:00:10;;;;;;;7.20;5.70;;;;;;;23.49;42.29;99640.41;8572134;23;20209;-82
2021/09/02 09:03:32;;;;;;;6.00;5.40;;;;;;;24.37;41.01;99659.44;8572575;23;20199;-82
2021/09/02 09:06:53;;;;;;;7.80;5.70;;;;;;;23.86;42.44;99643.84;8573601;23;20182;-81
2021/09/02 09:10:18;;;;;;;6.87;5.37;;;;;;;25.06;42.15;99639.31;8571862;23;20180;-82
2021/09/02 09:13:40;;;;;;;6.53;5.47;;;;;;;24.97;40.38;99631.88;8573642;23;20176;-81
2021/09/02 09:17:02;;;;;;;6.23;5.63;;;;;;;25.11;40.11;99636.56;8572433;23;20192;-82
2021/09/02 09:20:25;;;;;;;7.00;4.80;;;;;;;25.23;41.11;99633.47;8572407;23;20622;-81
2021/09/02 09:23:55;;;;;;;8.00;6.20;;;;;;;24.57;40.55;99627.22;8586434;23;20502;-81
2021/09/02 09:27:21;;;;;;;8.47;5.50;;;;;;;24.97;40.47;99637.41;8573043;23;20253;-82
2021/09/02 09:30:42;;;;;;;10.93;5.47;;;;;;;26.03;38.46;99634.06;8571502;23;20686;-81
2021/09/02 09:34:06;;;;;;;6.80;6.10;;;;;;;25.71;38.74;99622.56;8589933;23;20164;-82
2021/09/02 09:37:27;;;;;;;7.53;5.50;;;;;;;25.50;38.75;99617.41;8575639;23;20293;-82
2021/09/02 09:40:50;;;;;;;6.50;5.80;;;;;;;24.21;41.29;99619.16;8579709;23;20209;-82
2021/09/02 09:44:21;;;;;;;5.50;5.00;;;;;;;25.97;38.51;99609.47;8578645;23;20184;-82
2021/09/02 09:47:43;;;;;;;5.67;5.17;;;;;;;26.42;37.54;99615.53;8612724;22;20210;-80
2021/09/02 09:51:12;;;;;;;9.57;5.70;;;;;;;25.22;39.89;99609.75;8614738;23;20508;-80
2021/09/02 09:54:34;;;;;;;7.00;5.53;;;;;;;25.37;39.47;99604.22;8629379;23;20618;-79
2021/09/02 09:57:56;;;;;;;6.53;5.40;;;;;;;26.36;38.13;99602.03;8629006;23;20205;-80
2021/09/02 10:01:20;;;;;;;6.27;5.33;;;;;;;24.70;39.59;99589.97;8614903;23;20184;-80
2021/09/02 10:04:42;;;;;;;6.43;5.77;;;;;;;26.18;38.43;99586.13;8615539;23;20651;-80
2021/09/02 10:08:05;;;;;;;6.10;5.00;;;;;;;26.08;38.56;99592.53;8614786;23;20565;-80
2021/09/02 10:11:26;;;;;;;6.43;5.53;;;;;;;27.09;37.51;99573.16;8615548;23;20184;-80
2021/09/02 10:14:49;;;;;;;7.83;5.10;;;;;;;26.12;37.41;99585.34;8614943;23;20189;-80
2021/09/02 10:18:13;;;;;;;6.07;5.47;;;;;;;26.78;37.77;99569.06;8628202;23;20255;-80
2021/09/02 10:21:36;;;;;;;7.57;5.00;;;;;;;27.22;35.20;99566.94;8614999;23;20188;-80
2021/09/02 10:24:57;;;;;;;8.07;6.17;;;;;;;26.40;36.91;99592.03;8615322;23;20205;-81
2021/09/02 10:28:24;;;;;;;5.63;5.10;;;;;;;27.89;34.51;99572.19;8614850;23;20186;-80
2021/09/02 10:31:46;;;;;;;6.20;5.53;;;;;;;26.86;35.70;99560.94;8614719;23;20166;-80
2021/09/02 10:35:34;;;;;;;8.50;5.50;;;;;;;26.91;35.92;99571.13;8614954;23;20210;-80
2021/09/02 10:38:57;;;;;;;6.83;5.77;;;;;;;26.50;38.38;99540.25;8627755;23;20198;-80
2021/09/02 10:42:42;;;;;;;6.03;5.43;;;;;;;26.69;36.68;99540.34;8628402;23;20180;-80
2021/09/02 10:46:04;;;;;;;7.13;5.73;;;;;;;25.95;37.67;99562.78;8614636;23;20214;-80
2021/09/02 10:49:27;;;;;;;6.00;5.40;;;;;;;25.93;37.93;99561.41;8614140;23;20181;-80
2021/09/02 10:52:51;;;;;;;6.33;5.20;;;;;;;25.51;38.98;99553.63;8628330;23;20185;-80
2021/09/02 10:56:13;;;;;;;5.60;5.10;;;;;;;25.64;38.76;99563.22;8628233;23;20190;-80
2021/09/02 10:59:36;;;;;;;6.60;5.40;;;;;;;26.37;35.88;99537.31;8613633;23;20580;-80
2021/09/02 11:03:12;;;;;;;5.23;4.73;;;;;;;26.09;37.50;99527.88;8628450;23;20189;-80
2021/09/02 11:06:49;;;;;;;5.50;5.00;;;;;;;27.68;35.17;99543.91;8628482;23;20250;-80
2021/09/02 11:10:15;;;;;;;6.73;5.10;;;;;;;28.57;33.47;99532.56;8627612;23;20178;-80
2021/09/02 11:13:37;;;;;;;5.60;5.03;;;;;;;27.83;33.01;99526.28;8614678;23;20173;-80
2021/09/02 11:17:06;;;;;;;4.90;4.40;;;;;;;25.81;35.52;99522.22;8614099;23;20218;-80
2021/09/02 11:20:29;;;;;;;5.47;4.87;;;;;;;26.26;35.43;99550.38;8613156;23;20192;-80
2021/09/02 11:23:56;;;;;;;5.60;5.10;;;;;;;26.70;35.96;99530.94;8628531;23;20174;-80
2021/09/02 11:27:29;;;;;;;6.47;5.43;;;;;;;26.06;36.27;99539.50;8628235;23;20201;-80
2021/09/02 11:30:51;;;;;;;5.33;4.83;;;;;;;26.19;36.07;99522.25;8613900;23;20176;-80
2021/09/02 11:34:13;;;;;;;5.30;4.80;;;;;;;26.67;34.67;99531.53;8614633;23;20682;-80
2021/09/02 11:37:39;;;;;;;5.57;5.07;;;;;;;26.03;36.24;99498.63;8614008;23;20211;-80
2021/09/02 11:41:08;;;;;;;6.80;5.30;;;;;;;27.14;35.05;99515.75;8613920;23;20585;-80
2021/09/02 11:44:35;;;;;;;6.13;4.70;;;;;;;27.87;33.61;99507.91;8628023;23;20162;-80
2021/09/02 11:48:02;;;;;;;5.73;5.13;;;;;;;27.57;34.31;99505.53;8613456;23;20228;-80
2021/09/02 11:51:26;;;;;;;5.30;4.60;;;;;;;27.06;33.47;99505.34;8613994;23;20175;-80
2021/09/02 11:54:47;;;;;;;5.07;4.57;;;;;;;27.63;32.48;99504.34;8613567;23;20179;-80
2021/09/02 11:58:09;;;;;;;5.23;4.80;;;;;;;27.03;33.45;99497.66;8612648;23;20208;-80
2021/09/02 12:01:32;;;;;;;5.73;4.57;;;;;;;27.70;33.52;99491.78;8613793;23;20182;-80
2021/09/02 12:04:54;;;;;;;5.27;4.50;;;;;;;27.55;32.16;99503.06;8627289;23;20174;-80
2021/09/02 12:08:16;;;;;;;4.90;4.40;;;;;;;27.07;34.40;99507.00;8613344;23;20178;-80
2021/09/02 12:11:39;;;;;;;5.97;4.53;;;;;;;26.42;35.02;99493.84;8613942;23;20639;-79
2021/09/02 12:15:01;;;;;;;4.57;4.17;;;;;;;27.10;34.20;99455.75;8613096;23;20232;-80
2021/09/02 12:18:29;;;;;;;5.33;4.53;;;;;;;28.13;32.69;99500.84;8612782;23;20197;-80
2021/09/02 12:21:50;;;;;;;5.50;3.73;;;;;;;29.22;30.89;99500.78;8613752;23;20619;-80
2021/09/02 12:25:13;;;;;;;5.10;4.47;;;;;;;28.25;31.50;99485.34;8613799;23;20202;-80
2021/09/02 12:28:37;;;;;;;6.07;5.00;;;;;;;27.64;33.31;99503.22;8613287;23;20189;-80
2021/09/02 12:31:59;;;;;;;4.70;4.30;;;;;;;28.04;31.82;99483.22;8612942;23;20182;-80
2021/09/02 12:35:22;;;;;;;5.03;4.63;;;;;;;28.51;31.37;99439.44;8613789;23;20212;-80
2021/09/02 12:38:43;;;;;;;4.27;3.87;;;;;;;27.59;32.61;99450.63;8613171;23;20652;-80
2021/09/02 12:42:06;;;;;;;4.90;4.30;;;;;;;27.56;32.25;99490.03;8612985;23;20175;-80
2021/09/02 12:45:28;;;;;;;4.67;4.23;;;;;;;27.14;32.99;99490.84;8613155;23;20221;-80
2021/09/02 12:48:49;;;;;;;4.60;4.20;;;;;;;28.20;31.53;99468.00;8612794;23;20630;-80
2021/09/02 12:52:20;;;;;;;6.23;4.60;;;;;;;28.22;31.39;99483.22;8627137;23;20186;-80
2021/09/02 12:55:42;;;;;;;4.30;3.90;;;;;;;28.17;31.72;99482.44;8613427;23;20221;-80
2021/09/02 12:59:04;;;;;;;6.10;4.80;;;;;;;27.93;31.19;99488.13;8612612;23;20204;-80
2021/09/02 13:02:25;;;;;;;5.03;4.37;;;;;;;29.07;30.27;99476.09;8627031;23;20638;-80
2021/09/02 13:05:50;;;;;;;5.50;4.00;;;;;;;29.69;29.82;99475.31;8612534;23;20204;-80
2021/09/02 13:09:13;;;;;;;5.77;4.57;;;;;;;28.39;30.98;99469.63;8612580;23;20182;-80
2021/09/02 13:12:34;;;;;;;4.50;4.10;;;;;;;28.25;31.71;99467.91;8613485;23;20189;-80
2021/09/02 13:15:56;;;;;;;4.40;4.00;;;;;;;27.99;31.97;99455.59;8613157;23;20567;-80
2021/09/02 13:19:17;;;;;;;4.97;4.30;;;;;;;27.95;31.75;99452.59;8612605;23;20205;-80
2021/09/02 13:22:39;;;;;;;4.80;4.30;;;;;;;27.66;32.10;99451.91;8613297;23;20184;-80
2021/09/02 13:26:02;;;;;;;5.33;4.30;;;;;;;27.16;33.43;99449.03;8612672;23;20202;-80
2021/09/02 13:29:24;;;;;;;5.93;4.20;;;;;;;28.11;31.60;99445.69;8612811;23;20185;-80
2021/09/02 13:32:46;;;;;;;6.27;3.97;;;;;;;27.33;32.25;99450.22;8613378;23;20488;-80
2021/09/02 13:36:08;;;;;;;6.03;4.50;;;;;;;28.86;31.02;99440.69;8613313;23;20210;-80
2021/09/02 13:39:30;;;;;;;5.77;3.87;;;;;;;27.72;32.17;99442.41;8612856;23;20209;-80
2021/09/02 13:42:55;;;;;;;4.53;4.13;;;;;;;26.90;32.68;99439.41;8613036;23;20182;-80
2021/09/02 13:46:17;;;;;;;6.00;4.00;;;;;;;27.35;32.92;99424.97;8612936;23;20540;-80
2021/09/02 13:49:39;;;;;;;4.70;4.30;;;;;;;28.30;32.45;99435.34;8612304;23;20179;-80
2021/09/02 13:53:00;;;;;;;4.80;4.37;;;;;;;27.80;31.10;99433.47;8612704;23;20182;-80
2021/09/02 13:56:22;;;;;;;4.13;3.80;;;;;;;28.32;31.08;99443.38;8612947;23;20218;-80
2021/09/02 13:59:45;;;;;;;5.10;4.60;;;;;;;29.35;29.62;99432.41;8612596;23;20539;-80
2021/09/02 14:03:07;;;;;;;4.53;4.13;;;;;;;27.87;30.42;99428.34;8613073;23;20523;-80
2021/09/02 14:06:28;;;;;;;5.53;4.03;;;;;;;28.16;30.85;99423.41;8626881;23;20201;-80
2021/09/02 14:09:50;;;;;;;4.57;4.10;;;;;;;28.91;30.71;99413.63;8612354;23;20178;-80
2021/09/02 14:13:11;;;;;;;4.57;4.17;;;;;;;29.16;30.11;99406.75;8613045;23;20190;-80
2021/09/02 14:16:34;;;;;;;4.80;4.30;;;;;;;29.24;30.18;99419.91;8612478;23;20197;-80
2021/09/02 14:19:56;;;;;;;6.23;4.50;;;;;;;28.76;29.23;99419.50;8614696;23;20209;-80
2021/09/02 14:23:18;;;;;;;4.03;3.63;;;;;;;29.45;30.31;99407.19;8615607;23;20185;-80
2021/09/02 14:26:39;;;;;;;4.37;3.90;;;;;;;29.01;30.51;99399.56;8615212;23;20199;-80
2021/09/02 14:30:01;;;;;;;5.07;3.97;;;;;;;28.77;30.56;99412.00;8615418;23;20183;-80
2021/09/02 14:33:24;;;;;;;4.77;4.00;;;;;;;27.49;31.52;99420.34;8614954;23;20182;-80
2021/09/02 14:36:45;;;;;;;4.73;3.93;;;;;;;28.28;30.27;99406.25;8614811;23;20205;-80
2021/09/02 14:40:08;;;;;;;4.60;4.20;;;;;;;27.86;29.94;99407.31;8628312;23;20194;-80
2021/09/02 14:43:30;;;;;;;4.80;4.10;;;;;;;28.61;30.32;99407.88;8628802;23;20178;-80
2021/09/02 14:46:51;;;;;;;4.93;4.37;;;;;;;28.90;30.38;99408.41;8614786;23;20627;-80
2021/09/02 14:50:16;;;;;;;4.63;4.00;;;;;;;29.37;30.86;99403.19;8614425;23;20187;-80
2021/09/02 14:53:37;;;;;;;4.30;3.90;;;;;;;29.78;30.48;99394.75;8614649;23;20195;-80
2021/09/02 14:56:59;;;;;;;3.87;3.57;;;;;;;29.19;29.97;99406.94;8628821;23;20253;-80
2021/09/02 15:00:20;;;;;;;6.67;4.07;;;;;;;27.62;31.91;99395.47;8614760;23;20659;-80
2021/09/02 15:03:42;;;;;;;4.30;3.97;;;;;;;27.66;31.92;99370.75;8615740;23;20188;-80
2021/09/02 15:07:05;;;;;;;4.43;4.03;;;;;;;27.95;32.09;99397.16;8615295;23;20201;-80
2021/09/02 15:10:27;;;;;;;4.10;3.70;;;;;;;28.30;31.01;99382.63;8615346;23;20512;-80
2021/09/02 15:13:48;;;;;;;5.57;4.30;;;;;;;27.88;32.29;99395.88;8615036;23;20184;-80
2021/09/02 15:17:10;;;;;;;4.33;3.93;;;;;;;28.14;32.74;99384.03;8614544;23;20206;-81
2021/09/02 15:20:32;;;;;;;4.77;4.00;;;;;;;28.60;32.09;99392.38;8613977;23;20199;-81
2021/09/02 15:23:55;;;;;;;5.17;4.20;;;;;;;28.41;31.32;99381.34;8614042;23;20208;-81
2021/09/02 15:27:16;;;;;;;4.70;4.30;;;;;;;28.35;32.37;99379.78;8613920;23;20207;-80
2021/09/02 15:30:38;;;;;;;5.50;4.13;;;;;;;29.24;31.19;99373.50;8625720;23;20906;-80
2021/09/02 15:34:00;;;;;;;6.17;4.47;;;;;;;28.39;32.54;99389.16;8614226;23;20178;-80
2021/09/02 15:37:21;;;;;;;6.23;4.77;;;;;;;27.65;33.80;99372.69;8614187;23;20202;-80
2021/09/02 15:40:44;;;;;;;5.60;4.53;;;;;;;27.87;34.29;99372.06;8627143;23;20539;-80
2021/09/02 15:44:10;;;;;;;4.60;4.20;;;;;;;28.88;33.15;99372.59;8628013;23;20202;-80
2021/09/02 15:47:32;;;;;;;5.67;4.73;;;;;;;28.48;32.10;99322.69;8618211;22;20208;-94
2021/09/02 15:50:55;;;;;;;4.90;4.50;;;;;;;28.07;32.32;99283.00;8632690;23;20604;-93
2021/09/02 15:54:17;;;;;;;5.13;4.57;;;;;;;28.10;33.28;99349.75;8632080;23;20174;-93
2021/09/02 15:57:40;;;;;;;4.70;4.30;;;;;;;27.64;33.59;99335.03;8632164;22;20171;-94
2021/09/02 16:01:04;;;;;;;4.90;4.40;;;;;;;27.96;32.80;99278.78;8632257;22;20231;-94
2021/09/02 16:04:26;;;;;;;5.57;4.50;;;;;;;28.15;32.53;99334.97;8632271;23;20179;-94
2021/09/02 16:07:48;;;;;;;4.53;4.13;;;;;;;28.05;33.60;99346.22;8617589;23;20209;-94
2021/09/02 16:11:09;;;;;;;5.50;4.50;;;;;;;27.44;34.47;99346.44;8631541;22;20616;-93
2021/09/02 16:14:39;;;;;;;5.43;4.70;;;;;;;27.04;34.70;99263.97;8631429;23;20179;-93
2021/09/02 16:18:01;;;;;;;4.87;4.40;;;;;;;27.24;34.06;99276.72;8631531;22;20603;-94
2021/09/02 16:21:23;;;;;;;4.77;4.13;;;;;;;27.48;33.43;99275.44;8631878;23;20197;-93
2021/09/02 16:24:45;;;;;;;5.20;4.70;;;;;;;27.49;34.41;99284.59;8631760;22;20174;-93
2021/09/02 16:28:06;;;;;;;5.07;4.60;;;;;;;27.19;33.65;99271.25;8631875;23;20174;-93
2021/09/02 16:31:30;;;;;;;5.27;4.37;;;;;;;27.76;33.94;99288.25;8631067;23;20176;-94
2021/09/02 16:34:52;;;;;;;4.67;4.23;;;;;;;27.08;34.29;99233.75;8632839;23;20174;-93
2021/09/02 16:38:17;;;;;;;8.83;4.80;;;;;;;27.24;34.61;99251.78;8632570;22;20174;-93
2021/09/02 16:41:40;;;;;;;4.93;4.53;;;;;;;27.44;34.76;99331.75;8630958;23;20276;-93
2021/09/02 16:45:02;;;;;;;4.67;4.23;;;;;;;27.07;35.48;99320.69;8631093;23;20174;-93
2021/09/02 16:48:25;;;;;;;5.73;4.50;;;;;;;27.47;35.03;99309.81;8589091;23;20187;-93
2021/09/02 16:51:47;;;;;;;5.03;4.30;;;;;;;27.73;34.63;99301.91;8589297;23;20180;-94
2021/09/02 16:55:11;;;;;;;4.67;4.23;;;;;;;27.75;34.72;99258.91;8589402;23;20515;-93
2021/09/02 16:58:46;;;;;;;5.10;4.53;;;;;;;27.64;34.58;99348.88;8589818;23;20182;-94
2021/09/02 17:02:08;;;;;;;4.73;4.33;;;;;;;27.52;34.33;99246.00;8589264;23;20195;-94
2021/09/02 17:05:37;;;;;;;6.03;4.93;;;;;;;27.24;35.87;99324.59;8589093;23;20175;-93
2021/09/02 17:09:00;;;;;;;6.10;4.33;;;;;;;27.40;34.79;99254.00;8576325;23;20171;-95
2021/09/02 17:12:22;;;;;;;4.60;4.20;;;;;;;27.83;35.04;99310.06;8589289;23;20180;-95
2021/09/02 17:15:43;;;;;;;6.37;5.10;;;;;;;27.22;35.03;99284.47;8589414;23;20173;-94
2021/09/02 17:19:07;;;;;;;5.17;4.67;;;;;;;27.17;35.09;99281.78;8588884;23;20181;-94
2021/09/02 17:22:30;;;;;;;5.60;4.63;;;;;;;26.78;36.47;99300.63;8589129;23;20171;-94
2021/09/02 17:25:52;;;;;;;8.17;4.53;;;;;;;27.07;35.08;99254.25;8589120;23;20631;-94
2021/09/02 17:29:16;;;;;;;6.23;5.00;;;;;;;26.79;35.99;99261.56;8589557;23;20286;-96
2021/09/02 17:32:38;;;;;;;5.47;4.87;;;;;;;26.99;35.78;99249.38;8589161;23;20257;-96
2021/09/02 17:35:59;;;;;;;5.33;4.83;;;;;;;26.81;35.74;99236.38;8589012;23;20183;-96
2021/09/02 17:39:23;;;;;;;6.13;5.00;;;;;;;26.37;36.57;99213.75;8574677;23;20504;-96
2021/09/02 17:42:45;;;;;;;6.60;5.40;;;;;;;26.03;37.72;99224.16;8588888;23;20185;-96
2021/09/02 17:46:07;;;;;;;5.27;4.67;;;;;;;26.29;37.53;99259.47;8588765;23;20227;-96
2021/09/02 17:49:36;;;;;;;5.73;4.37;;;;;;;26.25;38.09;99301.84;8574593;23;20517;-96
2021/09/02 17:53:07;;;;;;;5.97;4.60;;;;;;;26.85;38.09;99321.25;8589833;23;20485;-96
2021/09/02 17:56:30;;;;;;;5.27;4.77;;;;;;;26.57;39.20;99277.13;8589644;23;20180;-96
2021/09/02 17:59:52;;;;;;;8.37;5.50;;;;;;;26.13;41.83;99259.97;8591104;23;20194;-96
2021/09/02 18:03:20;;;;;;;8.10;5.33;;;;;;;25.50;43.86;99259.25;8591554;23;20181;-96
2021/09/02 18:06:42;;;;;;;6.13;5.53;;;;;;;24.75;45.25;99221.19;8591031;23;20635;-96
2021/09/02 18:14:53;;;;;;;5.80;5.23;;;;;;;24.69;47.22;99332.66;8549120;23;20758;-96
2021/09/02 18:19:13;;;;;;;6.33;5.50;;;;;;;24.44;48.60;99343.78;8590969;23;20187;-96
2021/09/02 18:22:37;;;;;;;6.13;5.53;;;;;;;23.70;49.06;99251.94;8591179;23;20186;-96
2021/09/02 18:26:00;;;;;;;7.53;5.50;;;;;;;23.81;49.50;99319.66;8591429;23;20177;-96
2021/09/02 18:29:22;;;;;;;7.87;5.83;;;;;;;23.87;49.97;99317.69;8592535;23;20203;-96
2021/09/02 18:32:43;;;;;;;9.00;5.77;;;;;;;23.26;49.93;99239.88;8592381;23;20185;-96
2021/09/02 18:36:05;;;;;;;6.93;5.50;;;;;;;23.00;50.65;99226.34;8592911;23;20176;-96
2021/09/02 18:39:29;;;;;;;6.60;6.00;;;;;;;23.25;50.37;99262.97;8592506;23;20234;-96
2021/09/02 18:42:55;;;;;;;8.20;6.13;;;;;;;23.42;50.81;99315.03;8578420;23;20616;-96
2021/09/02 18:46:17;;;;;;;7.37;6.10;;;;;;;22.91;50.66;99248.13;8593043;23;20685;-96
2021/09/02 18:49:39;;;;;;;6.83;6.00;;;;;;;22.43;51.64;99245.00;8580402;23;20177;-96
2021/09/02 18:53:02;;;;;;;10.07;5.50;;;;;;;22.47;51.75;99249.66;8579013;23;20198;-96
2021/09/02 18:56:25;;;;;;;8.00;5.97;;;;;;;22.74;52.66;99326.44;8590469;23;20178;-96
2021/09/02 18:59:47;;;;;;;17.50;7.20;;;;;;;21.93;53.34;99245.59;8590739;23;20198;-96
2021/09/02 19:03:12;;;;;;;6.43;5.80;;;;;;;22.15;53.45;99287.44;8590758;23;20517;-96
2021/09/02 19:06:34;;;;;;;7.23;6.20;;;;;;;21.76;53.56;99236.72;8581732;23;20230;-96
2021/09/02 19:09:58;;;;;;;6.67;5.93;;;;;;;21.97;53.52;99279.69;8576014;23;20509;-96
2021/09/02 19:13:21;;;;;;;8.13;6.50;;;;;;;21.80;53.66;99273.53;8590360;23;20181;-96
2021/09/02 19:16:44;;;;;;;7.93;6.70;;;;;;;21.93;53.86;99313.41;8590331;23;20177;-96
2021/09/02 19:20:07;;;;;;;7.23;6.53;;;;;;;21.27;54.49;99247.34;8589955;23;20645;-93
2021/09/02 19:23:30;;;;;;;7.10;6.30;;;;;;;21.80;54.55;99342.16;8575865;23;20175;-94
2021/09/02 19:26:52;;;;;;;7.50;6.70;;;;;;;21.45;55.03;99322.66;8589596;23;20190;-93
2021/09/02 19:30:15;;;;;;;11.60;6.77;;;;;;;21.32;54.35;99283.88;8590271;23;20509;-94
2021/09/02 19:33:39;;;;;;;8.77;7.00;;;;;;;21.35;55.03;99319.81;8589958;23;20186;-93